Location:
 IT 
 EN 
 FR 
 DE 
 ES 

Current weather

Datameteo.com Informazioni Meteo attuali
Milano / Linate, Italy
Alba: 4:53 AM UTC1
Tramonto: 7:43 PM UTC1
 Lat: 45.42N, Lon: 9.27E
ICAO Used: LIML
Realzeit wetter, Realtime weather, Metèo en temps reel, Dato en tiempo real, Akt, Upd,Mis a j, Act
Update: 0320 AM UTC+1 GIO MAG 13 2021
Coperto
Temp: 14°C
Feuchte/Humidity/Humiditè/Humedad': 77%
Wind-Wind-Vent-Viento: NW 04 KTS /
Pressione-Pressure-Pression-Presìon: 1006 hPa
Tautemperatur-Dew Point-P. de Rosèe-Temp rocìo: 10°C
Wärmindex-Feels like-Index de Chaleur-Indice Calor: 13°C
Sicht-Visibility-Visibilitè-Visibilidad: N/D
Wind Chill-Refroidissement eolien-Indice Calor Viento (Wind Chill): 13°C
Ho"chs,High,Max 14 hr: 15°C
Mindes,Low,Min 24 hr: 13°C


ORIGINAL METAR
LIML 130320Z AUTO 31004KT 280V360 9999 OVC083/// 14/10 Q1006




Elaborazione dati by Datameteo.com - Lrc Servizi srl Copyright ©, All rights reserved.
View the web version
©2010 Datameteo.com
weather mobile,mobile weather,meteo mobile,mobile meteo,meteo sul telefonino datameteo.com